createdAt,value
2018-12-23T03:50:29.474Z,9.90
2018-12-23T03:53:02.914Z,7.97
2018-12-23T03:55:36.004Z,6.40
2018-12-23T03:58:08.422Z,5.83
2018-12-23T04:00:43.476Z,6.62
2018-12-23T04:03:17.389Z,3.57
2018-12-23T04:05:51.115Z,4.22
2018-12-23T04:08:24.895Z,4.80
2018-12-23T04:10:58.679Z,3.40
2018-12-23T04:13:32.762Z,2.67
2018-12-23T04:16:05.971Z,2.70
2018-12-23T04:18:39.829Z,2.50
2018-12-23T04:21:12.672Z,1.40
2018-12-23T04:23:45.331Z,1.43
2018-12-23T04:26:18.162Z,1.43
2018-12-23T04:28:50.940Z,1.50
2018-12-23T04:31:24.591Z,1.67
2018-12-23T04:33:59.577Z,1.80
2018-12-23T04:36:34.250Z,1.92
2018-12-23T04:39:08.517Z,1.40
2018-12-23T04:41:41.728Z,2.00
2018-12-23T04:44:14.674Z,1.32
2018-12-23T04:46:49.754Z,1.70
2018-12-23T04:49:22.224Z,1.57
2018-12-23T04:51:55.566Z,2.33
2018-12-23T04:54:29.038Z,2.10
2018-12-23T04:57:01.775Z,2.12
2018-12-23T04:59:34.360Z,2.63
2018-12-23T05:02:06.670Z,2.20
2018-12-23T05:04:39.490Z,2.60
2018-12-23T05:07:13.109Z,2.10
2018-12-23T05:09:46.342Z,1.10
2018-12-23T05:12:21.962Z,1.60
2018-12-23T05:14:54.531Z,3.17
2018-12-23T05:17:27.093Z,2.80
2018-12-23T05:20:00.082Z,3.15
2018-12-23T05:22:32.987Z,2.07
2018-12-23T05:25:06.533Z,1.72
2018-12-23T05:27:39.443Z,2.17
2018-12-23T05:30:13.108Z,3.60
2018-12-23T05:32:46.192Z,2.47
2018-12-23T05:35:19.103Z,2.22
2018-12-23T05:37:53.514Z,3.13
2018-12-23T05:40:26.381Z,2.02
2018-12-23T05:43:00.086Z,2.70
2018-12-23T05:45:32.587Z,3.60
2018-12-23T05:48:05.636Z,3.98
2018-12-23T05:50:39.237Z,3.92
2018-12-23T05:53:12.056Z,1.62
2018-12-23T05:55:41.625Z,1.95
2018-12-23T05:58:14.691Z,2.85
2018-12-23T06:00:47.775Z,2.02
2018-12-23T06:03:20.192Z,2.33
2018-12-23T06:05:53.156Z,1.75
2018-12-23T06:08:25.986Z,2.53
2018-12-23T06:10:58.696Z,2.27
2018-12-23T06:13:32.911Z,1.65
2018-12-23T06:16:06.426Z,1.07
2018-12-23T06:18:39.460Z,2.12
2018-12-23T06:21:12.204Z,2.22
2018-12-23T06:23:48.155Z,1.30
2018-12-23T06:26:20.831Z,1.00
2018-12-23T06:28:54.047Z,1.62
2018-12-23T06:31:26.486Z,2.55
2018-12-23T06:33:58.927Z,1.90
2018-12-23T06:36:32.460Z,1.80
2018-12-23T06:39:07.461Z,3.60
2018-12-23T06:41:39.880Z,4.30
2018-12-23T06:44:13.594Z,4.93
2018-12-23T06:46:47.495Z,2.22
2018-12-23T06:49:20.435Z,5.50
2018-12-23T06:51:53.982Z,4.00
2018-12-23T06:54:27.407Z,5.22
2018-12-23T06:57:00.203Z,3.98
2018-12-23T06:59:33.248Z,3.30
2018-12-23T07:02:06.240Z,2.97
2018-12-23T07:04:38.807Z,2.35
2018-12-23T07:07:18.543Z,4.20
2018-12-23T07:09:45.739Z,4.42
2018-12-23T07:12:18.516Z,3.87
2018-12-23T07:14:51.631Z,3.83
2018-12-23T07:17:25.503Z,3.67
2018-12-23T07:19:59.069Z,3.90
2018-12-23T07:22:56.225Z,1.92
2018-12-23T07:25:30.776Z,2.98
2018-12-23T07:28:04.349Z,2.00
2018-12-23T07:30:37.496Z,2.10
2018-12-23T07:33:11.816Z,2.33
2018-12-23T07:35:45.351Z,1.20
2018-12-23T07:38:18.200Z,1.83
2018-12-23T07:40:51.283Z,1.80
2018-12-23T07:43:24.674Z,1.98
2018-12-23T07:45:57.438Z,1.93
2018-12-23T07:48:29.900Z,1.82
2018-12-23T07:51:02.780Z,1.70
2018-12-23T07:53:38.177Z,1.47
2018-12-23T07:56:30.746Z,2.03
2018-12-23T07:59:03.261Z,1.02
2018-12-23T08:01:35.631Z,1.67
2018-12-23T08:04:08.581Z,0.77
2018-12-23T08:06:41.258Z,1.22
2018-12-23T08:09:14.688Z,1.27
2018-12-23T08:11:47.796Z,1.00
2018-12-23T08:14:20.979Z,0.33
2018-12-23T08:16:53.825Z,1.20
2018-12-23T08:19:32.274Z,2.05
2018-12-23T08:22:08.956Z,0.70
2018-12-23T08:24:43.134Z,1.55
2018-12-23T08:27:16.180Z,1.80
2018-12-23T08:29:55.844Z,2.00
2018-12-23T08:32:30.993Z,2.80
2018-12-23T08:35:04.881Z,2.67
2018-12-23T08:37:44.576Z,3.60
2018-12-23T08:40:12.145Z,5.37
2018-12-23T08:42:45.066Z,3.60
2018-12-23T08:45:18.874Z,4.13
2018-12-23T08:47:52.140Z,4.30
2018-12-23T08:50:25.422Z,7.27
2018-12-23T08:52:58.352Z,6.80
2018-12-23T08:55:31.977Z,5.25
2018-12-23T08:58:05.266Z,7.22
2018-12-23T09:00:38.118Z,7.50
2018-12-23T09:03:18.660Z,7.33
2018-12-23T09:05:47.993Z,6.77
2018-12-23T09:08:21.806Z,6.47
2018-12-23T09:13:48.698Z,3.37
2018-12-23T09:16:23.802Z,4.37
2018-12-23T09:18:57.225Z,4.53
2018-12-23T09:21:32.931Z,3.92
2018-12-23T09:24:06.108Z,5.30
2018-12-23T09:26:43.276Z,3.85
2018-12-23T09:29:17.469Z,4.55
2018-12-23T09:31:51.842Z,3.60
2018-12-23T09:34:29.331Z,2.80
2018-12-23T09:37:02.728Z,1.90
2018-12-23T09:39:41.494Z,3.30
2018-12-23T09:42:15.615Z,3.97
2018-12-23T09:44:50.528Z,3.90
2018-12-23T09:47:25.142Z,2.92
2018-12-23T09:50:19.063Z,2.90
2018-12-23T09:53:11.442Z,1.97
2018-12-23T09:55:47.665Z,2.02
2018-12-23T09:58:24.846Z,1.10
2018-12-23T10:00:59.019Z,1.93
2018-12-23T10:03:33.221Z,3.53
2018-12-23T10:06:07.640Z,2.58
2018-12-23T10:08:42.267Z,3.17
2018-12-23T10:11:16.670Z,2.90
2018-12-23T10:13:51.817Z,3.08
2018-12-23T10:16:27.083Z,2.92
2018-12-23T10:19:02.282Z,3.15
2018-12-23T10:21:43.376Z,3.20
2018-12-23T10:24:36.442Z,1.20
2018-12-23T10:27:09.609Z,2.83
2018-12-23T10:29:43.956Z,1.80
2018-12-23T10:32:17.602Z,1.25
2018-12-23T10:34:50.437Z,1.82
2018-12-23T10:37:24.997Z,5.22
2018-12-23T10:39:59.013Z,1.70
2018-12-23T10:42:32.553Z,1.80
2018-12-23T10:45:09.941Z,1.30
2018-12-23T10:47:46.673Z,0.93
2018-12-23T10:50:19.939Z,1.87
2018-12-23T10:52:56.343Z,2.03
2018-12-23T10:55:32.197Z,2.30
2018-12-23T10:58:10.016Z,1.77
2018-12-23T11:00:54.532Z,1.32
2018-12-23T11:03:27.993Z,1.47
2018-12-23T11:06:06.407Z,2.15
2018-12-23T11:08:44.049Z,1.20
2018-12-23T11:11:17.398Z,2.07
2018-12-23T11:13:51.609Z,1.70
2018-12-23T11:16:25.680Z,1.72
2018-12-23T11:19:00.794Z,2.33
2018-12-23T11:21:34.152Z,2.72
2018-12-23T11:24:09.818Z,1.00
2018-12-23T11:26:43.854Z,2.95
2018-12-23T11:29:20.915Z,1.92
2018-12-23T11:31:57.697Z,1.82
2018-12-23T11:34:31.688Z,2.90
2018-12-23T11:37:05.568Z,1.77
2018-12-23T11:39:40.479Z,1.63
2018-12-23T11:42:16.149Z,2.55
2018-12-23T11:44:59.642Z,2.75
2018-12-23T11:47:45.881Z,2.33
2018-12-23T11:50:24.938Z,2.30
2018-12-23T11:53:01.510Z,2.27
2018-12-23T11:55:35.329Z,1.80
2018-12-23T11:58:09.797Z,1.13
2018-12-23T12:00:42.987Z,1.65
2018-12-23T12:03:23.973Z,1.27
2018-12-23T12:05:57.460Z,1.45
2018-12-23T12:08:33.471Z,2.00
2018-12-23T12:11:08.204Z,1.15
2018-12-23T12:13:41.898Z,0.75
2018-12-23T12:16:14.827Z,1.20
2018-12-23T12:18:51.296Z,1.13
2018-12-23T12:21:25.755Z,1.40
2018-12-23T12:23:58.977Z,1.07
2018-12-23T12:26:33.534Z,1.00
2018-12-23T12:29:06.448Z,1.40
2018-12-23T12:31:39.402Z,0.72
2018-12-23T12:34:12.982Z,1.20
2018-12-23T12:36:46.159Z,1.90
2018-12-23T12:39:19.451Z,1.40
2018-12-23T12:41:53.256Z,1.00
2018-12-23T12:44:29.356Z,0.87
2018-12-23T12:47:04.480Z,0.30
2018-12-23T12:49:39.266Z,1.50
2018-12-23T12:52:13.707Z,1.30
2018-12-23T12:54:59.372Z,1.40
2018-12-23T12:57:49.214Z,0.60
2018-12-23T13:00:33.855Z,0.57
2018-12-23T13:03:07.377Z,0.88
2018-12-23T13:05:40.416Z,1.72
2018-12-23T13:08:15.682Z,1.52
2018-12-23T13:10:52.158Z,1.62
2018-12-23T13:13:27.308Z,1.72
2018-12-23T13:16:00.813Z,0.77
2018-12-23T13:18:34.626Z,1.43
2018-12-23T13:21:08.871Z,1.90
2018-12-23T13:24:01.636Z,0.60
2018-12-23T13:27:09.461Z,1.10
2018-12-23T13:29:43.745Z,1.40
2018-12-23T13:32:18.822Z,1.25
2018-12-23T13:34:51.907Z,1.47
2018-12-23T13:37:27.706Z,1.42
2018-12-23T13:40:11.321Z,1.40
2018-12-23T13:43:32.163Z,0.97
2018-12-23T13:47:08.639Z,0.90
2018-12-23T13:50:49.770Z,1.30
2018-12-23T13:54:16.926Z,1.20
2018-12-23T13:57:35.771Z,3.85
2018-12-23T14:01:22.384Z,1.60
2018-12-23T14:04:48.335Z,1.60
2018-12-23T14:08:10.140Z,1.55
2018-12-23T14:11:15.011Z,1.45
2018-12-23T14:13:50.026Z,1.50
2018-12-23T14:16:24.544Z,1.70
2018-12-23T14:19:01.624Z,1.32
2018-12-23T14:21:35.632Z,1.80
2018-12-23T14:24:08.779Z,1.57
2018-12-23T14:26:42.948Z,1.60
2018-12-23T14:29:16.119Z,1.50
2018-12-23T14:31:51.011Z,1.33
2018-12-23T14:34:24.279Z,2.02
2018-12-23T14:36:59.556Z,2.27
2018-12-23T14:39:34.743Z,2.40
2018-12-23T14:42:07.400Z,2.55
2018-12-23T14:44:40.851Z,2.50
2018-12-23T14:47:13.741Z,2.67
2018-12-23T14:56:05.634Z,1.70
2018-12-23T14:58:42.298Z,2.35
2018-12-23T15:01:16.104Z,1.82
2018-12-23T15:03:51.332Z,1.97
2018-12-23T15:06:25.421Z,1.67
2018-12-23T15:08:58.107Z,1.00
2018-12-23T15:11:31.345Z,3.50
2018-12-23T15:14:04.673Z,2.03
2018-12-23T15:16:40.069Z,2.30
2018-12-23T15:19:14.267Z,2.17
2018-12-23T15:21:47.546Z,2.75
2018-12-23T15:24:41.407Z,2.37
2018-12-23T15:27:36.364Z,11.68
2018-12-23T15:30:09.592Z,2.83
2018-12-23T15:32:44.798Z,2.35
2018-12-23T15:35:28.942Z,2.10
2018-12-23T15:38:03.922Z,2.05
2018-12-23T15:40:36.521Z,2.00
2018-12-23T15:43:11.790Z,2.80
2018-12-23T15:45:46.655Z,1.90
2018-12-23T15:48:20.373Z,2.10
2018-12-23T15:50:55.984Z,2.60
2018-12-23T15:53:31.224Z,1.70
2018-12-23T15:56:20.954Z,2.00
2018-12-23T16:27:28.935Z,3.62
2018-12-23T16:30:02.718Z,10.48
2018-12-23T16:32:36.677Z,3.80
2018-12-23T16:35:12.665Z,3.80
2018-12-23T16:37:47.429Z,4.78
2018-12-23T16:40:22.354Z,4.83
2018-12-23T16:42:57.365Z,5.37
2018-12-23T16:45:31.250Z,4.70
2018-12-23T17:09:48.140Z,4.87
2018-12-23T17:12:22.530Z,4.83
2018-12-23T17:14:59.088Z,4.78
2018-12-23T17:17:33.457Z,4.30
2018-12-23T17:20:08.594Z,5.23
2018-12-23T17:22:41.981Z,4.65
2018-12-23T17:25:16.504Z,4.40
2018-12-23T17:27:50.419Z,4.70
2018-12-23T17:30:43.040Z,4.80
2018-12-23T17:33:17.480Z,4.55
2018-12-23T17:35:51.455Z,5.08
2018-12-23T17:38:26.282Z,3.93
2018-12-23T17:41:00.182Z,5.50
2018-12-23T17:43:32.661Z,4.58
2018-12-23T17:46:06.183Z,4.78
2018-12-23T17:48:39.140Z,4.03
2018-12-23T17:51:12.690Z,7.08
2018-12-23T17:53:46.237Z,4.40
2018-12-23T17:56:19.980Z,4.73
2018-12-23T17:58:52.858Z,4.30
2018-12-23T18:01:25.862Z,5.30
2018-12-23T18:04:02.392Z,4.25
2018-12-23T18:06:35.019Z,4.90
2018-12-23T18:09:09.639Z,4.53
2018-12-23T18:11:43.293Z,6.92
2018-12-23T18:14:17.935Z,3.92
2018-12-23T18:16:51.334Z,4.00
2018-12-23T18:19:28.406Z,4.25
2018-12-23T18:22:01.908Z,4.70
2018-12-23T18:24:37.823Z,4.77
2018-12-23T18:27:13.395Z,4.78
2018-12-23T18:29:50.801Z,4.67
2018-12-23T18:32:24.896Z,5.78
2018-12-23T18:35:05.138Z,5.30
2018-12-23T18:37:40.135Z,4.95
2018-12-23T18:40:14.250Z,3.52
2018-12-23T18:42:47.734Z,6.75
2018-12-23T18:45:23.504Z,5.25
2018-12-23T18:47:59.360Z,4.90
2018-12-23T18:50:33.032Z,7.65
2018-12-23T18:53:06.179Z,7.57
2018-12-23T18:55:42.069Z,4.45
2018-12-23T19:01:28.869Z,4.83
2018-12-23T19:04:06.841Z,5.50
2018-12-23T19:06:41.337Z,3.70
2018-12-23T19:10:30.359Z,2.95
2018-12-23T19:14:10.828Z,3.02
2018-12-23T19:17:48.950Z,2.97
2018-12-23T19:21:28.786Z,3.00
2018-12-23T19:24:55.440Z,2.87
2018-12-23T19:28:21.648Z,5.50
2018-12-23T19:32:22.536Z,2.20
2018-12-23T19:36:14.948Z,4.70
2018-12-23T19:40:16.941Z,3.60
2018-12-23T19:44:00.897Z,6.92
2018-12-23T19:48:07.418Z,7.87
2018-12-23T19:51:48.459Z,4.30
2018-12-23T19:55:39.168Z,2.70
2018-12-23T19:59:32.010Z,3.53
2018-12-23T20:03:05.472Z,5.33
2018-12-23T20:06:32.257Z,5.20
2018-12-23T20:09:50.810Z,3.53
2018-12-23T20:13:40.187Z,2.47
2018-12-23T20:17:20.309Z,5.17
2018-12-23T20:20:57.772Z,3.17
2018-12-23T20:24:29.129Z,3.03
2018-12-23T20:28:09.257Z,4.73
2018-12-23T20:31:43.552Z,4.30
2018-12-23T20:35:10.254Z,3.67
2018-12-23T20:38:50.177Z,4.23
2018-12-23T20:42:08.267Z,3.70
2018-12-23T20:46:01.341Z,4.57
2018-12-23T20:49:43.228Z,4.60
2018-12-23T20:53:26.700Z,5.47
2018-12-23T20:57:12.199Z,5.23
2018-12-23T21:01:04.760Z,5.60
2018-12-23T21:04:49.081Z,5.27
2018-12-23T21:07:56.721Z,7.00
2018-12-23T21:11:23.688Z,3.57
2018-12-23T21:15:01.118Z,5.67
2018-12-23T21:18:35.641Z,5.50
2018-12-23T21:22:44.950Z,3.90
2018-12-23T21:26:06.690Z,3.53
2018-12-23T21:29:44.255Z,5.17
2018-12-23T21:33:02.162Z,5.10
2018-12-23T21:36:47.441Z,3.73
2018-12-23T21:40:33.574Z,2.57
2018-12-23T21:43:51.288Z,4.20
2018-12-23T21:47:28.087Z,2.50
2018-12-23T21:51:19.429Z,2.00
2018-12-23T21:54:29.113Z,3.60
2018-12-23T21:57:47.114Z,1.87
2018-12-23T22:01:18.562Z,2.97
2018-12-23T22:04:56.770Z,2.03
2018-12-23T22:08:29.976Z,2.30
2018-12-23T22:11:47.538Z,1.17
2018-12-23T22:14:28.802Z,3.13
2018-12-23T22:17:03.962Z,2.77
2018-12-23T22:19:38.665Z,3.07
2018-12-23T22:22:11.891Z,7.97
2018-12-23T22:24:45.125Z,3.77
2018-12-23T22:27:20.657Z,3.10
2018-12-23T22:32:55.214Z,4.07
2018-12-23T22:35:28.627Z,3.70
2018-12-23T22:38:02.775Z,4.30
2018-12-23T22:40:37.615Z,6.30
2018-12-23T22:43:14.743Z,5.83
2018-12-23T22:45:50.597Z,9.13
2018-12-23T22:48:24.721Z,6.47
2018-12-23T22:50:59.202Z,3.93
2018-12-23T22:53:32.283Z,3.67
2018-12-23T22:56:05.771Z,5.23
2018-12-23T22:58:38.389Z,7.10
2018-12-23T23:01:11.457Z,5.03
2018-12-23T23:03:45.828Z,7.17
2018-12-23T23:06:18.877Z,6.73
2018-12-23T23:08:52.532Z,7.77
2018-12-23T23:11:27.427Z,4.97
2018-12-23T23:14:01.986Z,4.10
2018-12-23T23:16:36.434Z,3.50
2018-12-23T23:19:10.886Z,6.67
2018-12-23T23:21:46.730Z,6.87
2018-12-23T23:24:22.803Z,5.07
2018-12-23T23:26:57.740Z,3.47
2018-12-23T23:32:29.679Z,7.53
2018-12-23T23:35:10.472Z,7.50
2018-12-23T23:37:44.175Z,7.97
2018-12-23T23:40:17.423Z,7.03
2018-12-23T23:42:50.843Z,6.53
2018-12-23T23:45:27.595Z,5.67
2018-12-23T23:59:54.724Z,7.27
